Terminal Aerodrome Forecast
Issued by NWS

Home | Current Version | Previous Version | Text Only | Print | Product List | Glossary Off
Versions: 1 2 3 4 5 6 7 8 9 10 11 12

409
FTUS43 KICT 201120
TAFSLN
TAF
KSLN 201120Z 2012/2112 35014G20KT P6SM BKN140
     FM210000 04009KT P6SM FEW250
     FM210300 08005KT P6SM SCT200
     FM211000 07007KT P6SM BKN110=

USA.gov is the U.S. government's official web portal to all federal, state and local government web resources and services.